createdAt,value
2022-09-11T00:01:33.353Z,1.60
2022-09-11T00:04:38.612Z,1.30
2022-09-11T00:07:44.330Z,1.63
2022-09-11T00:10:49.950Z,1.45
2022-09-11T00:13:56.858Z,1.60
2022-09-11T00:17:03.003Z,1.60
2022-09-11T00:20:09.911Z,1.33
2022-09-11T00:23:18.042Z,1.30
2022-09-11T00:26:24.916Z,1.63
2022-09-11T00:29:31.292Z,1.50
2022-09-11T00:32:37.220Z,1.38
2022-09-11T00:35:43.381Z,1.35
2022-09-11T00:38:50.328Z,1.40
2022-09-11T00:41:56.241Z,1.30
2022-09-11T00:45:07.444Z,1.30
2022-09-11T00:48:23.127Z,1.55
2022-09-11T00:51:33.688Z,1.40
2022-09-11T00:54:58.165Z,1.33
2022-09-11T00:58:07.238Z,1.30
2022-09-11T01:01:14.876Z,1.33
2022-09-11T01:04:22.209Z,1.30
2022-09-11T01:07:29.945Z,1.15
2022-09-11T01:11:05.456Z,1.23
2022-09-11T01:14:46.115Z,1.08
2022-09-11T01:18:13.403Z,0.93
2022-09-11T01:21:34.372Z,1.20
2022-09-11T01:25:04.790Z,1.10
2022-09-11T01:28:15.987Z,1.00
2022-09-11T01:31:26.420Z,0.98
2022-09-11T01:34:53.447Z,0.93
2022-09-11T01:38:06.677Z,0.85
2022-09-11T01:41:18.703Z,0.90
2022-09-11T01:44:37.282Z,0.90
2022-09-11T01:47:48.299Z,1.00
2022-09-11T01:50:55.891Z,1.13
2022-09-11T01:54:04.737Z,1.27
2022-09-11T01:57:28.002Z,1.40
2022-09-11T02:00:37.867Z,1.10
2022-09-11T02:04:01.292Z,1.20
2022-09-11T02:07:19.968Z,1.20
2022-09-11T02:10:36.350Z,1.23
2022-09-11T02:14:16.335Z,1.63
2022-09-11T02:17:46.676Z,1.42
2022-09-11T02:20:53.829Z,1.38
2022-09-11T02:24:00.918Z,1.13
2022-09-11T02:27:10.463Z,1.25
2022-09-11T02:30:15.825Z,1.50
2022-09-11T02:33:36.353Z,1.30
2022-09-11T02:37:11.807Z,1.15
2022-09-11T02:41:03.239Z,1.38
2022-09-11T02:44:45.032Z,1.23
2022-09-11T02:48:15.610Z,1.08
2022-09-11T02:51:40.210Z,1.25
2022-09-11T02:55:11.268Z,1.10
2022-09-11T02:58:29.458Z,1.60
2022-09-11T03:01:53.584Z,1.08
2022-09-11T03:05:02.119Z,1.27
2022-09-11T03:08:08.668Z,0.98
2022-09-11T03:11:17.830Z,1.30
2022-09-11T03:14:25.348Z,1.10
2022-09-11T03:17:30.663Z,0.95
2022-09-11T03:20:36.174Z,1.10
2022-09-11T03:23:41.877Z,1.00
2022-09-11T03:26:47.905Z,0.75
2022-09-11T03:29:57.041Z,1.00
2022-09-11T03:33:03.458Z,0.80
2022-09-11T03:36:10.810Z,0.90
2022-09-11T03:39:16.643Z,0.95
2022-09-11T03:42:22.460Z,0.90
2022-09-11T03:45:28.302Z,1.00
2022-09-11T03:48:35.989Z,0.98
2022-09-11T03:51:41.754Z,0.90
2022-09-11T03:54:47.741Z,0.90
2022-09-11T03:57:53.994Z,0.95
2022-09-11T04:01:00.906Z,0.93
2022-09-11T04:04:08.052Z,0.90
2022-09-11T04:07:18.814Z,0.93
2022-09-11T04:10:26.624Z,1.08
2022-09-11T04:13:36.617Z,1.23
2022-09-11T04:16:45.622Z,1.13
2022-09-11T04:19:51.141Z,1.20
2022-09-11T04:22:57.227Z,1.25
2022-09-11T04:26:04.604Z,1.33
2022-09-11T04:29:12.795Z,1.35
2022-09-11T04:32:18.310Z,1.50
2022-09-11T04:35:24.271Z,1.38
2022-09-11T04:38:34.565Z,1.05
2022-09-11T04:41:41.321Z,1.20
2022-09-11T04:44:49.425Z,1.30
2022-09-11T04:47:54.762Z,1.33
2022-09-11T04:51:06.425Z,1.25
2022-09-11T04:54:18.248Z,1.40
2022-09-11T04:57:24.985Z,1.17
2022-09-11T05:00:31.299Z,1.10
2022-09-11T05:03:38.074Z,1.17
2022-09-11T05:06:48.625Z,1.10
2022-09-11T05:09:55.935Z,1.20
2022-09-11T05:13:01.880Z,1.00
2022-09-11T05:16:17.368Z,1.00
2022-09-11T05:19:23.404Z,0.93
2022-09-11T05:22:29.541Z,1.10
2022-09-11T05:25:37.588Z,1.00
2022-09-11T05:28:43.253Z,1.10
2022-09-11T05:31:50.255Z,1.08
2022-09-11T05:34:57.757Z,1.30
2022-09-11T05:38:03.863Z,1.20
2022-09-11T05:41:12.748Z,1.40
2022-09-11T05:44:19.927Z,1.40
2022-09-11T05:47:26.070Z,0.95
2022-09-11T05:50:34.805Z,1.30
2022-09-11T05:53:41.674Z,1.20
2022-09-11T05:56:54.960Z,1.00
2022-09-11T06:00:05.903Z,1.05
2022-09-11T06:03:17.741Z,1.30
2022-09-11T06:06:24.560Z,1.25
2022-09-11T06:09:32.280Z,1.30
2022-09-11T06:12:37.956Z,0.80
2022-09-11T06:15:49.170Z,1.35
2022-09-11T06:18:55.183Z,1.27
2022-09-11T06:22:01.392Z,1.00
2022-09-11T06:25:12.121Z,1.20
2022-09-11T06:28:18.444Z,1.08
2022-09-11T06:31:27.083Z,1.13
2022-09-11T06:34:34.061Z,1.20
2022-09-11T06:37:44.045Z,1.30
2022-09-11T06:40:50.829Z,1.20
2022-09-11T06:43:57.198Z,1.20
2022-09-11T06:47:05.942Z,1.10
2022-09-11T06:50:14.796Z,1.25
2022-09-11T06:53:44.617Z,1.20
2022-09-11T06:56:52.359Z,1.10
2022-09-11T06:59:58.365Z,0.93
2022-09-11T07:03:08.736Z,1.20
2022-09-11T07:06:18.550Z,1.20
2022-09-11T07:09:25.827Z,1.15
2022-09-11T07:12:34.583Z,1.23
2022-09-11T07:15:41.968Z,1.10
2022-09-11T07:18:49.005Z,1.27
2022-09-11T07:22:03.654Z,1.10
2022-09-11T07:25:11.795Z,1.40
2022-09-11T07:28:20.593Z,1.60
2022-09-11T07:31:29.771Z,1.73
2022-09-11T07:34:37.264Z,2.00
2022-09-11T07:37:50.613Z,2.00
2022-09-11T07:40:58.471Z,2.17
2022-09-11T07:44:06.394Z,1.90
2022-09-11T07:47:12.974Z,2.03
2022-09-11T07:50:24.600Z,2.33
2022-09-11T07:53:51.634Z,2.10
2022-09-11T07:56:58.447Z,2.13
2022-09-11T08:00:05.314Z,2.60
2022-09-11T08:03:26.073Z,2.90
2022-09-11T08:06:36.938Z,3.17
2022-09-11T08:09:52.836Z,2.58
2022-09-11T08:13:09.309Z,3.03
2022-09-11T08:16:17.254Z,3.00
2022-09-11T08:19:25.262Z,2.90
2022-09-11T08:22:35.018Z,2.80
2022-09-11T08:25:41.884Z,2.30
2022-09-11T08:28:50.610Z,2.58
2022-09-11T08:32:00.331Z,2.75
2022-09-11T08:35:09.353Z,2.53
2022-09-11T08:38:15.224Z,2.75
2022-09-11T08:41:56.877Z,2.83
2022-09-11T08:45:07.445Z,2.90
2022-09-11T08:48:17.255Z,2.65
2022-09-11T08:51:23.052Z,2.58
2022-09-11T08:54:28.472Z,2.75
2022-09-11T08:57:43.180Z,2.53
2022-09-11T09:00:57.254Z,2.42
2022-09-11T09:04:29.678Z,2.60
2022-09-11T09:07:57.263Z,2.97
2022-09-11T09:11:29.220Z,2.78
2022-09-11T09:14:48.687Z,2.80
2022-09-11T09:18:01.832Z,2.53
2022-09-11T09:21:28.801Z,2.17
2022-09-11T09:24:43.716Z,2.20
2022-09-11T09:28:00.806Z,1.90
2022-09-11T09:31:09.471Z,1.60
2022-09-11T09:34:21.395Z,1.40
2022-09-11T09:37:28.457Z,1.50
2022-09-11T09:40:36.293Z,1.42
2022-09-11T09:44:00.210Z,1.52
2022-09-11T09:47:11.057Z,1.23
2022-09-11T09:50:34.420Z,1.35
2022-09-11T09:54:01.824Z,1.40
2022-09-11T09:57:11.052Z,1.50
2022-09-11T10:00:20.251Z,1.20
2022-09-11T10:03:26.498Z,1.50
2022-09-11T10:06:32.547Z,1.30
2022-09-11T10:09:47.228Z,1.52
2022-09-11T10:13:07.777Z,1.75
2022-09-11T10:16:26.314Z,1.88
2022-09-11T10:19:44.615Z,1.60
2022-09-11T10:22:51.241Z,1.90
2022-09-11T10:25:56.918Z,3.33
2022-09-11T10:29:18.672Z,6.15
2022-09-11T10:32:25.084Z,10.57
2022-09-11T10:35:32.738Z,8.27
2022-09-11T10:38:48.362Z,5.28
2022-09-11T10:41:59.621Z,5.40
2022-09-11T10:45:17.299Z,3.20
2022-09-11T10:48:23.556Z,2.30
2022-09-11T10:51:33.249Z,3.22
2022-09-11T10:54:51.322Z,1.90
2022-09-11T10:58:23.606Z,2.53
2022-09-11T11:01:29.618Z,6.03
2022-09-11T11:04:35.491Z,5.15
2022-09-11T11:08:27.609Z,2.70
2022-09-11T11:12:24.605Z,3.00
2022-09-11T11:15:54.148Z,2.97
2022-09-11T11:19:28.469Z,3.65
2022-09-11T11:23:03.234Z,15.05
2022-09-11T11:26:44.911Z,2.67
2022-09-11T11:30:17.444Z,2.30
2022-09-11T11:33:43.109Z,2.00
2022-09-11T11:37:17.186Z,2.30
2022-09-11T11:40:36.026Z,2.38
2022-09-11T11:43:44.385Z,2.33
2022-09-11T11:46:52.647Z,2.60
2022-09-11T11:50:40.763Z,2.90
2022-09-11T11:54:00.285Z,2.70
2022-09-11T11:57:18.824Z,2.72
2022-09-11T12:00:24.548Z,4.35
2022-09-11T12:03:40.773Z,3.55
2022-09-11T12:06:46.956Z,4.05
2022-09-11T12:09:55.284Z,4.13
2022-09-11T12:13:06.215Z,3.95
2022-09-11T12:16:31.794Z,4.22
2022-09-11T12:19:37.728Z,3.80
2022-09-11T12:22:45.209Z,3.42
2022-09-11T12:26:03.835Z,3.53
2022-09-11T12:29:15.723Z,3.80
2022-09-11T12:32:29.297Z,3.60
2022-09-11T12:35:54.231Z,3.10
2022-09-11T12:39:34.680Z,3.75
2022-09-11T12:42:40.445Z,2.92
2022-09-11T12:45:48.668Z,3.00
2022-09-11T12:49:21.124Z,3.20
2022-09-11T12:52:49.734Z,2.78
2022-09-11T12:55:59.451Z,3.33
2022-09-11T12:59:09.874Z,3.30
2022-09-11T13:02:39.086Z,3.08
2022-09-11T13:06:14.043Z,2.80
2022-09-11T13:09:38.926Z,2.33
2022-09-11T13:12:52.597Z,10.07
2022-09-11T13:15:59.185Z,2.60
2022-09-11T13:19:22.467Z,4.50
2022-09-11T13:22:35.031Z,3.63
2022-09-11T13:25:46.097Z,4.28
2022-09-11T13:28:55.596Z,2.60
2022-09-11T13:32:11.739Z,2.10
2022-09-11T13:35:25.823Z,2.80
2022-09-11T13:38:34.606Z,2.20
2022-09-11T13:41:44.597Z,2.42
2022-09-11T13:44:56.641Z,2.08
2022-09-11T13:48:03.312Z,2.08
2022-09-11T13:51:35.911Z,2.75
2022-09-11T13:54:48.277Z,2.25
2022-09-11T13:58:03.407Z,2.00
2022-09-11T14:01:17.193Z,1.70
2022-09-11T14:04:27.642Z,2.30
2022-09-11T14:07:35.201Z,2.90
2022-09-11T14:10:44.437Z,2.95
2022-09-11T14:13:58.458Z,2.55
2022-09-11T14:17:04.988Z,2.10
2022-09-11T14:20:20.288Z,2.10
2022-09-11T14:23:28.886Z,2.00
2022-09-11T14:26:35.241Z,1.80
2022-09-11T14:29:53.786Z,2.15
2022-09-11T14:33:26.288Z,1.80
2022-09-11T14:36:32.705Z,1.77
2022-09-11T14:40:11.467Z,3.13
2022-09-11T14:43:24.612Z,2.05
2022-09-11T14:46:31.039Z,2.03
2022-09-11T14:49:37.262Z,2.03
2022-09-11T14:52:43.278Z,2.00
2022-09-11T14:55:50.358Z,2.10
2022-09-11T14:58:56.274Z,1.60
2022-09-11T15:02:02.165Z,1.58
2022-09-11T15:05:16.177Z,2.10
2022-09-11T15:08:22.647Z,1.80
2022-09-11T15:11:28.635Z,1.70
2022-09-11T15:14:55.098Z,1.80
2022-09-11T15:18:01.229Z,1.80
2022-09-11T15:21:07.337Z,1.80
2022-09-11T15:24:13.188Z,1.70
2022-09-11T15:27:19.943Z,2.15
2022-09-11T15:30:27.886Z,1.60
2022-09-11T15:33:34.020Z,1.83
2022-09-11T15:36:41.676Z,2.08
2022-09-11T15:39:51.088Z,2.75
2022-09-11T15:42:57.540Z,3.15
2022-09-11T15:46:11.793Z,3.08
2022-09-11T15:49:19.694Z,2.15
2022-09-11T15:52:27.697Z,1.80
2022-09-11T15:55:35.712Z,1.30
2022-09-11T15:58:42.983Z,1.30
2022-09-11T16:01:49.374Z,1.65
2022-09-11T16:04:55.794Z,1.80
2022-09-11T16:08:01.798Z,2.00
2022-09-11T16:11:10.301Z,2.70
2022-09-11T16:14:23.941Z,2.50
2022-09-11T16:17:32.642Z,2.30
2022-09-11T16:20:44.202Z,2.70
2022-09-11T16:23:55.003Z,2.28
2022-09-11T16:27:02.329Z,2.30
2022-09-11T16:30:32.675Z,2.60
2022-09-11T16:33:40.547Z,2.85
2022-09-11T16:36:46.799Z,3.20
2022-09-11T16:39:52.885Z,2.97
2022-09-11T16:42:58.859Z,3.60
2022-09-11T16:46:04.996Z,4.25
2022-09-11T16:49:19.021Z,3.58
2022-09-11T16:52:26.388Z,4.45
2022-09-11T16:55:37.384Z,3.85
2022-09-11T16:58:44.893Z,3.90
2022-09-11T17:01:52.746Z,3.80
2022-09-11T17:04:58.467Z,4.30
2022-09-11T17:08:05.215Z,3.38
2022-09-11T17:11:14.067Z,3.72
2022-09-11T17:14:22.437Z,4.10
2022-09-11T17:17:31.882Z,4.78
2022-09-11T17:20:39.160Z,4.35
2022-09-11T17:23:45.675Z,4.38
2022-09-11T17:26:51.787Z,4.78
2022-09-11T17:29:58.117Z,4.70
2022-09-11T17:33:04.467Z,5.05
2022-09-11T17:36:13.194Z,5.32
2022-09-11T17:39:18.866Z,5.30
2022-09-11T17:42:25.142Z,5.38
2022-09-11T17:45:31.569Z,5.50
2022-09-11T17:48:39.755Z,5.28
2022-09-11T17:51:46.101Z,5.55
2022-09-11T17:54:52.019Z,5.05
2022-09-11T17:57:57.800Z,5.07
2022-09-11T18:01:03.538Z,5.43
2022-09-11T18:04:10.416Z,6.13
2022-09-11T18:07:17.122Z,5.93
2022-09-11T18:10:24.057Z,5.80
2022-09-11T18:13:34.798Z,5.30
2022-09-11T18:16:41.283Z,4.65
2022-09-11T18:19:47.648Z,5.22
2022-09-11T18:22:54.065Z,5.43
2022-09-11T18:26:01.203Z,5.45
2022-09-11T18:29:10.939Z,5.68
2022-09-11T18:32:16.572Z,5.80
2022-09-11T18:35:22.099Z,5.10
2022-09-11T18:38:32.955Z,5.80
2022-09-11T18:41:39.452Z,5.72
2022-09-11T18:44:45.195Z,5.72
2022-09-11T18:47:53.207Z,5.68
2022-09-11T18:51:03.386Z,6.10
2022-09-11T18:54:17.754Z,6.10
2022-09-11T18:57:25.795Z,5.78
2022-09-11T19:00:32.561Z,5.40
2022-09-11T19:03:42.349Z,5.35
2022-09-11T19:06:48.516Z,5.93
2022-09-11T19:09:54.570Z,5.75
2022-09-11T19:13:00.912Z,5.93
2022-09-11T19:16:07.329Z,5.43
2022-09-11T19:19:13.247Z,5.32
2022-09-11T19:22:22.837Z,4.95
2022-09-11T19:25:30.228Z,5.20
2022-09-11T19:28:36.005Z,5.30
2022-09-11T19:31:42.571Z,5.05
2022-09-11T19:34:48.364Z,4.25
2022-09-11T19:37:56.184Z,4.60
2022-09-11T19:41:02.172Z,4.90
2022-09-11T19:44:12.513Z,4.60
2022-09-11T19:47:18.422Z,4.43
2022-09-11T19:50:24.394Z,4.50
2022-09-11T19:53:30.530Z,4.60
2022-09-11T19:56:38.054Z,4.50
2022-09-11T19:59:44.229Z,3.92
2022-09-11T20:02:50.115Z,4.13
2022-09-11T20:05:55.940Z,4.40
2022-09-11T20:09:27.225Z,4.18
2022-09-11T20:12:36.575Z,4.50
2022-09-11T20:15:42.943Z,4.25
2022-09-11T20:18:48.535Z,4.07
2022-09-11T20:21:54.496Z,4.07
2022-09-11T20:25:00.613Z,3.95
2022-09-11T20:28:06.549Z,4.97
2022-09-11T20:31:37.085Z,4.38
2022-09-11T20:34:45.966Z,4.75
2022-09-11T20:37:52.863Z,4.82
2022-09-11T20:41:00.513Z,4.97
2022-09-11T20:44:06.373Z,4.70
2022-09-11T20:47:13.701Z,4.65
2022-09-11T20:50:19.990Z,4.75
2022-09-11T20:53:27.764Z,5.43
2022-09-11T20:56:33.831Z,5.15
2022-09-11T20:59:39.615Z,5.07
2022-09-11T21:02:45.389Z,5.30
2022-09-11T21:05:51.006Z,5.45
2022-09-11T21:09:04.048Z,5.70
2022-09-11T21:12:09.916Z,5.03
2022-09-11T21:15:15.465Z,5.43
2022-09-11T21:18:21.047Z,5.07
2022-09-11T21:21:29.032Z,5.50
2022-09-11T21:24:35.187Z,6.00
2022-09-11T21:27:40.590Z,5.57
2022-09-11T21:30:46.490Z,5.40
2022-09-11T21:33:52.358Z,5.30
2022-09-11T21:36:58.223Z,5.53
2022-09-11T21:40:05.487Z,5.70
2022-09-11T21:43:11.328Z,5.75
2022-09-11T21:46:17.034Z,5.75
2022-09-11T21:49:22.903Z,5.47
2022-09-11T21:52:29.969Z,4.50
2022-09-11T21:55:44.515Z,5.50
2022-09-11T21:58:51.268Z,5.70
2022-09-11T22:01:58.139Z,5.95
2022-09-11T22:05:04.612Z,5.68
2022-09-11T22:08:15.916Z,5.65
2022-09-11T22:11:22.076Z,5.82
2022-09-11T22:14:27.810Z,5.60
2022-09-11T22:17:33.488Z,5.72
2022-09-11T22:20:40.997Z,5.20
2022-09-11T22:23:46.676Z,5.13
2022-09-11T22:26:52.957Z,5.22
2022-09-11T22:29:58.418Z,4.90
2022-09-11T22:33:04.927Z,5.18
2022-09-11T22:36:15.467Z,5.13
2022-09-11T22:39:22.016Z,4.88
2022-09-11T22:42:27.618Z,5.28
2022-09-11T22:45:33.561Z,5.10
2022-09-11T22:48:40.693Z,5.45
2022-09-11T22:51:46.317Z,5.05
2022-09-11T22:54:51.980Z,4.45
2022-09-11T22:57:58.249Z,5.53
2022-09-11T23:01:04.215Z,5.25
2022-09-11T23:04:10.482Z,5.35
2022-09-11T23:12:46.070Z,5.32
2022-09-11T23:15:51.640Z,4.80
2022-09-11T23:19:01.843Z,5.57
2022-09-11T23:22:07.219Z,5.05
2022-09-11T23:25:13.900Z,5.03
2022-09-11T23:28:19.731Z,5.72
2022-09-11T23:31:34.941Z,5.20
2022-09-11T23:34:40.227Z,5.15
2022-09-11T23:37:46.147Z,5.22
2022-09-11T23:40:51.729Z,4.95
2022-09-11T23:43:57.347Z,5.38
2022-09-11T23:47:02.950Z,4.78
2022-09-11T23:50:09.749Z,5.07
2022-09-11T23:53:15.032Z,5.10
2022-09-11T23:56:22.661Z,5.43
2022-09-11T23:59:28.284Z,5.13
